createdAt,value
2017-09-11T00:01:21.132Z,16.40
2017-09-11T00:03:47.568Z,16.40
2017-09-11T00:06:14.012Z,16.40
2017-09-11T00:08:40.463Z,16.30
2017-09-11T00:11:06.887Z,16.30
2017-09-11T00:13:33.333Z,16.30
2017-09-11T00:15:59.793Z,16.30
2017-09-11T00:18:26.963Z,16.40
2017-09-11T00:20:53.391Z,16.40
2017-09-11T00:23:19.828Z,16.40
2017-09-11T00:25:47.078Z,16.40
2017-09-11T00:28:13.697Z,16.40
2017-09-11T00:30:40.891Z,16.30
2017-09-11T00:33:07.318Z,16.30
2017-09-11T00:35:33.808Z,16.40
2017-09-11T00:38:01.007Z,16.30
2017-09-11T00:40:27.712Z,16.30
2017-09-11T00:42:54.184Z,16.30
2017-09-11T00:45:20.813Z,16.20
2017-09-11T00:47:47.258Z,16.20
2017-09-11T00:50:13.763Z,16.10
2017-09-11T00:52:41.834Z,16.10
2017-09-11T00:55:09.215Z,16.10
2017-09-11T00:57:35.979Z,16.00
2017-09-11T01:00:02.424Z,16.10
2017-09-11T01:02:28.840Z,16.10
2017-09-11T01:04:55.275Z,16.00
2017-09-11T01:07:22.073Z,15.90
2017-09-11T01:09:48.531Z,16.00
2017-09-11T01:12:15.078Z,15.90
2017-09-11T01:14:42.290Z,16.00
2017-09-11T01:17:08.704Z,15.90
2017-09-11T01:19:36.713Z,16.00
2017-09-11T01:22:03.307Z,16.00
2017-09-11T01:24:30.077Z,15.90
2017-09-11T01:26:56.548Z,15.80
2017-09-11T01:29:23.116Z,15.80
2017-09-11T01:31:50.380Z,15.90
2017-09-11T01:34:16.812Z,15.90
2017-09-11T01:36:43.979Z,15.80
2017-09-11T01:39:10.487Z,15.70
2017-09-11T01:41:37.652Z,15.80
2017-09-11T01:44:04.820Z,15.90
2017-09-11T01:46:32.168Z,15.80
2017-09-11T01:48:59.014Z,15.90
2017-09-11T01:51:25.503Z,15.80
2017-09-11T01:53:51.959Z,15.80
2017-09-11T01:56:19.240Z,15.70
2017-09-11T01:58:45.712Z,15.70
2017-09-11T02:01:12.206Z,15.60
2017-09-11T02:03:38.654Z,15.60
2017-09-11T02:06:05.075Z,15.50
2017-09-11T02:08:31.507Z,15.50
2017-09-11T02:10:57.914Z,15.40
2017-09-11T02:13:25.598Z,15.40
2017-09-11T02:15:52.021Z,15.40
2017-09-11T02:18:19.236Z,15.40
2017-09-11T02:20:46.443Z,15.40
2017-09-11T02:23:12.900Z,15.30
2017-09-11T02:25:39.322Z,15.30
2017-09-11T02:28:05.803Z,15.40
2017-09-11T02:30:32.233Z,15.40
2017-09-11T02:32:58.671Z,15.30
2017-09-11T02:35:25.985Z,15.50
2017-09-11T02:37:52.421Z,15.50
2017-09-11T02:40:20.362Z,15.50
2017-09-11T02:42:47.694Z,15.50
2017-09-11T02:45:14.931Z,15.50
2017-09-11T02:47:42.091Z,15.30
2017-09-11T02:50:09.272Z,15.20
2017-09-11T02:52:35.715Z,15.20
2017-09-11T02:55:02.159Z,15.10
2017-09-11T02:57:28.596Z,15.10
2017-09-11T02:59:55.023Z,15.10
2017-09-11T03:02:21.791Z,15.10
2017-09-11T03:04:48.981Z,14.90
2017-09-11T03:07:15.928Z,14.90
2017-09-11T03:09:43.277Z,14.90
2017-09-11T03:12:10.438Z,14.90
2017-09-11T03:14:36.871Z,14.90
2017-09-11T03:17:03.338Z,14.90
2017-09-11T03:19:29.803Z,14.70
2017-09-11T03:21:56.232Z,14.60
2017-09-11T03:24:22.816Z,14.70
2017-09-11T03:26:49.278Z,14.80
2017-09-11T03:29:15.704Z,14.70
2017-09-11T03:31:42.123Z,14.70
2017-09-11T03:34:08.540Z,14.60
2017-09-11T03:36:34.968Z,14.60
2017-09-11T03:39:01.404Z,14.60
2017-09-11T03:41:27.943Z,14.70
2017-09-11T03:43:54.395Z,14.70
2017-09-11T03:46:21.023Z,14.70
2017-09-11T03:48:47.483Z,14.80
2017-09-11T03:51:13.904Z,14.70
2017-09-11T03:53:40.331Z,14.80
2017-09-11T03:56:07.558Z,14.80
2017-09-11T03:58:34.036Z,14.70
2017-09-11T04:01:00.553Z,14.70
2017-09-11T04:03:26.983Z,14.70
2017-09-11T04:05:53.425Z,14.70
2017-09-11T04:08:19.853Z,14.80
2017-09-11T04:10:46.281Z,14.80
2017-09-11T04:13:12.716Z,14.90
2017-09-11T04:15:39.131Z,15.00
2017-09-11T04:18:05.542Z,15.00
2017-09-11T04:20:32.741Z,15.00
2017-09-11T04:23:04.484Z,14.90
2017-09-11T04:25:30.893Z,14.90
2017-09-11T04:27:58.047Z,14.90
2017-09-11T04:30:24.489Z,14.90
2017-09-11T04:32:50.931Z,14.90
2017-09-11T04:35:17.486Z,14.90
2017-09-11T04:37:43.951Z,14.90
2017-09-11T04:40:11.879Z,14.90
2017-09-11T04:42:38.377Z,14.90
2017-09-11T04:45:05.613Z,14.90
2017-09-11T04:47:32.034Z,14.90
2017-09-11T04:49:59.688Z,14.90
2017-09-11T04:52:26.110Z,15.00
2017-09-11T04:54:52.536Z,14.90
2017-09-11T04:57:19.133Z,14.90
2017-09-11T04:59:45.699Z,14.90
2017-09-11T05:02:12.164Z,15.00
2017-09-11T05:04:39.419Z,14.90
2017-09-11T05:07:07.370Z,14.90
2017-09-11T05:09:33.820Z,14.90
2017-09-11T05:12:00.258Z,14.90
2017-09-11T05:14:28.168Z,14.90
2017-09-11T05:16:55.209Z,14.90
2017-09-11T05:19:22.759Z,15.00
2017-09-11T05:21:49.309Z,14.90
2017-09-11T05:24:15.844Z,15.00
2017-09-11T05:26:42.283Z,15.00
2017-09-11T05:29:08.705Z,15.00
2017-09-11T05:31:35.932Z,15.00
2017-09-11T05:34:03.188Z,15.20
2017-09-11T05:36:29.711Z,15.10
2017-09-11T05:38:56.171Z,15.30
2017-09-11T05:41:22.920Z,15.40
2017-09-11T05:43:50.690Z,15.40
2017-09-11T05:46:17.502Z,15.40
2017-09-11T05:48:44.811Z,15.30
2017-09-11T05:51:11.336Z,15.30
2017-09-11T05:53:37.856Z,15.20
2017-09-11T05:56:04.335Z,15.20
2017-09-11T05:58:30.743Z,15.20
2017-09-11T06:00:57.171Z,15.30
2017-09-11T06:03:23.641Z,15.40
2017-09-11T06:05:50.831Z,15.30
2017-09-11T06:08:17.267Z,15.30
2017-09-11T06:10:45.439Z,15.30
2017-09-11T06:13:12.010Z,15.40
2017-09-11T06:15:38.463Z,15.40
2017-09-11T06:18:04.943Z,15.40
2017-09-11T06:20:31.395Z,15.40
2017-09-11T06:22:57.825Z,15.40
2017-09-11T06:25:24.614Z,15.40
2017-09-11T06:27:57.536Z,15.60
2017-09-11T06:30:24.204Z,15.60
2017-09-11T06:32:50.816Z,15.50
2017-09-11T06:35:17.364Z,15.60
2017-09-11T06:37:45.218Z,15.60
2017-09-11T06:40:11.902Z,15.70
2017-09-11T06:42:38.903Z,15.70
2017-09-11T06:45:05.366Z,15.70
2017-09-11T06:47:31.844Z,15.70
2017-09-11T06:49:59.026Z,15.80
2017-09-11T06:52:25.486Z,15.80
2017-09-11T06:54:51.956Z,15.80
2017-09-11T06:57:19.378Z,15.80
2017-09-11T06:59:46.596Z,15.90
2017-09-11T07:02:13.040Z,15.90
2017-09-11T07:04:40.382Z,15.90
2017-09-11T07:07:06.803Z,15.90
2017-09-11T07:09:33.994Z,16.10
2017-09-11T07:12:12.708Z,16.10
2017-09-11T07:14:39.181Z,16.00
2017-09-11T07:17:07.090Z,16.20
2017-09-11T07:19:33.506Z,16.10
2017-09-11T07:22:00.757Z,16.30
2017-09-11T07:24:27.931Z,16.30
2017-09-11T07:26:54.412Z,16.40
2017-09-11T07:29:20.867Z,16.20
2017-09-11T07:31:48.035Z,16.30
2017-09-11T07:34:15.667Z,16.40
2017-09-11T07:36:42.152Z,16.40
2017-09-11T07:39:08.635Z,16.40
2017-09-11T07:41:35.060Z,16.50
2017-09-11T07:44:01.549Z,16.50
2017-09-11T07:46:28.069Z,16.50
2017-09-11T07:48:54.503Z,16.60
2017-09-11T07:51:21.250Z,16.60
2017-09-11T07:53:47.731Z,16.80
2017-09-11T07:56:14.210Z,16.90
2017-09-11T07:58:41.815Z,17.00
2017-09-11T08:01:09.115Z,17.10
2017-09-11T08:03:35.743Z,17.10
2017-09-11T08:06:02.922Z,17.30
2017-09-11T08:08:29.348Z,17.20
2017-09-11T08:10:55.784Z,17.40
2017-09-11T08:13:22.317Z,17.50
2017-09-11T08:15:48.751Z,17.60
2017-09-11T08:18:15.287Z,17.60
2017-09-11T08:20:41.735Z,17.60
2017-09-11T08:23:08.184Z,17.50
2017-09-11T08:25:37.004Z,17.70
2017-09-11T08:28:03.675Z,17.70
2017-09-11T08:30:30.115Z,17.80
2017-09-11T08:32:56.536Z,17.90
2017-09-11T08:35:24.668Z,17.90
2017-09-11T08:37:51.079Z,17.90
2017-09-11T08:40:17.615Z,17.80
2017-09-11T08:42:44.063Z,17.90
2017-09-11T08:45:10.480Z,17.90
2017-09-11T08:47:36.892Z,17.80
2017-09-11T08:50:03.359Z,17.90
2017-09-11T08:52:29.785Z,17.80
2017-09-11T08:54:56.253Z,17.80
2017-09-11T08:57:22.964Z,17.80
2017-09-11T08:59:49.489Z,17.80
2017-09-11T09:02:16.236Z,18.00
2017-09-11T09:04:43.251Z,18.00
2017-09-11T09:07:09.679Z,17.90
2017-09-11T09:09:36.183Z,17.90
2017-09-11T09:12:02.621Z,17.80
2017-09-11T09:14:30.498Z,17.90
2017-09-11T09:16:56.931Z,17.90
2017-09-11T09:19:24.311Z,17.90
2017-09-11T09:21:50.757Z,17.90
2017-09-11T09:24:17.288Z,17.90
2017-09-11T09:26:43.736Z,17.90
2017-09-11T09:29:10.169Z,17.80
2017-09-11T09:31:36.603Z,17.70
2017-09-11T09:34:03.063Z,17.80
2017-09-11T09:36:29.496Z,17.90
2017-09-11T09:38:55.908Z,18.00
2017-09-11T09:41:22.523Z,18.00
2017-09-11T09:43:49.868Z,18.00
2017-09-11T09:46:16.565Z,18.00
2017-09-11T09:48:43.059Z,17.90
2017-09-11T09:51:09.615Z,18.00
2017-09-11T09:53:36.088Z,17.90
2017-09-11T09:56:03.299Z,18.10
2017-09-11T09:58:29.763Z,18.00
2017-09-11T10:00:57.060Z,17.80
2017-09-11T10:03:24.186Z,17.80
2017-09-11T10:05:50.783Z,18.10
2017-09-11T10:08:18.023Z,18.40
2017-09-11T10:10:44.497Z,18.40
2017-09-11T10:15:44.828Z,18.30
2017-09-11T10:18:11.285Z,18.40
2017-09-11T10:20:38.839Z,18.50
2017-09-11T10:23:05.377Z,18.70
2017-09-11T10:25:31.887Z,18.80
2017-09-11T10:27:59.073Z,19.00
2017-09-11T10:30:26.339Z,19.00
2017-09-11T10:32:52.867Z,19.00
2017-09-11T10:35:19.415Z,19.00
2017-09-11T10:37:45.849Z,19.10
2017-09-11T10:40:12.272Z,19.20
2017-09-11T10:42:38.696Z,19.30
2017-09-11T10:45:05.851Z,19.00
2017-09-11T10:47:32.628Z,19.00
2017-09-11T10:49:59.394Z,19.10
2017-09-11T10:52:27.037Z,19.20
2017-09-11T10:54:55.177Z,19.10
2017-09-11T10:57:22.619Z,19.10
2017-09-11T10:59:49.302Z,19.00
2017-09-11T11:02:16.925Z,19.00
2017-09-11T11:04:43.391Z,19.00
2017-09-11T11:07:09.911Z,19.00
2017-09-11T11:09:36.461Z,19.10
2017-09-11T11:12:02.981Z,19.10
2017-09-11T11:14:30.620Z,19.00
2017-09-11T11:16:57.116Z,19.10
2017-09-11T11:19:24.007Z,19.10
2017-09-11T11:21:50.527Z,19.00
2017-09-11T11:24:18.025Z,19.10
2017-09-11T11:26:44.543Z,19.20
2017-09-11T11:29:11.788Z,19.20
2017-09-11T11:31:38.662Z,19.20
2017-09-11T11:34:05.104Z,19.20
2017-09-11T11:36:33.034Z,19.40
2017-09-11T11:38:59.575Z,19.30
2017-09-11T11:41:26.173Z,19.30
2017-09-11T11:43:53.353Z,19.40
2017-09-11T11:46:20.150Z,19.40
2017-09-11T11:48:47.346Z,19.40
2017-09-11T11:51:13.816Z,19.40
2017-09-11T11:53:42.241Z,19.30
2017-09-11T11:56:08.941Z,19.30
2017-09-11T11:58:35.386Z,19.30
2017-09-11T12:01:01.915Z,19.10
2017-09-11T12:03:29.313Z,19.20
2017-09-11T12:05:55.812Z,19.20
2017-09-11T12:08:22.682Z,19.10
2017-09-11T12:10:49.925Z,19.00
2017-09-11T12:13:16.527Z,19.00
2017-09-11T12:15:42.964Z,19.00
2017-09-11T12:18:10.354Z,19.00
2017-09-11T12:20:37.019Z,19.00
2017-09-11T12:23:03.476Z,19.00
2017-09-11T12:25:30.587Z,18.90
2017-09-11T12:27:57.035Z,19.00
2017-09-11T12:30:23.636Z,19.10
2017-09-11T12:32:50.931Z,19.20
2017-09-11T12:35:17.564Z,19.20
2017-09-11T12:37:44.728Z,19.20
2017-09-11T12:40:11.187Z,19.10
2017-09-11T12:42:37.924Z,19.10
2017-09-11T12:45:06.252Z,19.00
2017-09-11T12:47:32.965Z,19.00
2017-09-11T12:49:59.403Z,18.90
2017-09-11T12:52:26.459Z,18.90
2017-09-11T12:54:53.628Z,18.80
2017-09-11T12:57:20.869Z,18.80
2017-09-11T12:59:47.333Z,18.80
2017-09-11T13:02:13.811Z,18.80
2017-09-11T13:04:40.338Z,18.70
2017-09-11T13:07:06.780Z,18.80
2017-09-11T13:09:34.849Z,18.80
2017-09-11T13:12:01.373Z,18.80
2017-09-11T13:14:27.949Z,18.80
2017-09-11T13:16:54.848Z,18.80
2017-09-11T13:19:21.325Z,18.80
2017-09-11T13:21:47.788Z,18.80
2017-09-11T13:24:14.529Z,18.80
2017-09-11T13:26:40.992Z,18.80
2017-09-11T13:29:07.937Z,18.80
2017-09-11T13:31:35.735Z,18.70
2017-09-11T13:34:02.920Z,18.70
2017-09-11T13:36:29.351Z,18.70
2017-09-11T13:38:55.809Z,18.70
2017-09-11T13:41:22.741Z,18.80
2017-09-11T13:43:49.608Z,18.70
2017-09-11T13:46:16.039Z,18.50
2017-09-11T13:48:42.459Z,18.40
2017-09-11T13:51:08.879Z,18.40
2017-09-11T13:53:35.817Z,18.40
2017-09-11T13:56:03.499Z,18.30
2017-09-11T13:58:30.281Z,18.20
2017-09-11T14:00:56.733Z,18.20
2017-09-11T14:03:24.545Z,18.20
2017-09-11T14:05:51.049Z,18.20
2017-09-11T14:08:18.845Z,18.20
2017-09-11T14:10:45.319Z,18.20
2017-09-11T14:13:11.865Z,18.20
2017-09-11T14:15:39.023Z,18.10
2017-09-11T14:18:06.192Z,18.10
2017-09-11T14:20:33.651Z,18.10
2017-09-11T14:23:01.002Z,18.10
2017-09-11T14:25:27.627Z,18.00
2017-09-11T14:27:54.789Z,18.00
2017-09-11T14:30:21.276Z,18.00
2017-09-11T14:32:47.972Z,18.00
2017-09-11T14:35:14.456Z,18.10
2017-09-11T14:37:40.885Z,18.10
2017-09-11T14:40:07.312Z,18.20
2017-09-11T14:42:33.719Z,18.10
2017-09-11T14:45:00.173Z,18.10
2017-09-11T14:47:26.590Z,18.10
2017-09-11T14:49:53.917Z,18.10
2017-09-11T14:52:21.173Z,18.10
2017-09-11T14:54:47.686Z,18.10
2017-09-11T14:57:14.894Z,18.00
2017-09-11T14:59:41.355Z,17.90
2017-09-11T15:02:07.795Z,18.00
2017-09-11T15:04:34.291Z,18.00
2017-09-11T15:07:00.684Z,18.10
2017-09-11T15:09:27.863Z,18.00
2017-09-11T15:11:54.274Z,18.00
2017-09-11T15:14:22.571Z,17.90
2017-09-11T15:16:49.143Z,17.80
2017-09-11T15:19:15.634Z,17.80
2017-09-11T15:21:42.079Z,17.70
2017-09-11T15:24:08.523Z,17.70
2017-09-11T15:26:34.976Z,17.70
2017-09-11T15:29:01.716Z,17.70
2017-09-11T15:31:29.018Z,17.60
2017-09-11T15:33:55.567Z,17.60
2017-09-11T15:36:22.053Z,17.40
2017-09-11T15:38:50.158Z,17.30
2017-09-11T15:41:18.383Z,17.20
2017-09-11T15:43:45.788Z,17.30
2017-09-11T15:46:12.195Z,17.30
2017-09-11T15:48:38.769Z,17.30
2017-09-11T15:51:05.211Z,17.30
2017-09-11T15:53:31.795Z,17.30
2017-09-11T15:55:59.158Z,17.30
2017-09-11T15:58:25.660Z,17.30
2017-09-11T16:00:52.123Z,17.40
2017-09-11T16:03:19.388Z,17.40
2017-09-11T16:05:46.657Z,17.40
2017-09-11T16:08:13.428Z,17.30
2017-09-11T16:10:40.011Z,17.30
2017-09-11T16:13:06.482Z,17.30
2017-09-11T16:15:33.007Z,17.30
2017-09-11T16:17:59.463Z,17.30
2017-09-11T16:20:25.906Z,17.30
2017-09-11T16:22:52.326Z,17.30
2017-09-11T16:25:18.871Z,17.30
2017-09-11T16:27:45.388Z,17.30
2017-09-11T16:30:12.004Z,17.20
2017-09-11T16:32:40.084Z,17.50
2017-09-11T16:35:06.531Z,17.40
2017-09-11T16:37:33.016Z,17.30
2017-09-11T16:40:00.232Z,17.20
2017-09-11T16:42:26.645Z,17.20
2017-09-11T16:44:53.033Z,17.30
2017-09-11T16:47:19.449Z,17.30
2017-09-11T16:49:45.856Z,17.40
2017-09-11T16:52:12.257Z,17.40
2017-09-11T16:54:39.425Z,17.40
2017-09-11T16:57:05.879Z,17.40
2017-09-11T16:59:32.293Z,17.40
2017-09-11T17:01:58.717Z,17.50
2017-09-11T17:04:25.851Z,17.40
2017-09-11T17:06:52.318Z,17.30
2017-09-11T17:09:18.794Z,17.30
2017-09-11T17:11:46.908Z,17.50
2017-09-11T17:14:13.309Z,17.40
2017-09-11T17:16:39.698Z,17.50
2017-09-11T17:19:06.065Z,17.30
2017-09-11T17:21:32.462Z,17.20
2017-09-11T17:23:58.813Z,17.10
2017-09-11T17:26:25.816Z,17.10
2017-09-11T17:28:52.249Z,17.10
2017-09-11T17:31:18.799Z,17.10
2017-09-11T17:33:45.223Z,17.10
2017-09-11T17:36:11.638Z,17.10
2017-09-11T17:38:38.079Z,17.20
2017-09-11T17:41:04.499Z,17.10
2017-09-11T17:43:30.917Z,17.00
2017-09-11T17:45:57.903Z,17.00
2017-09-11T17:48:24.457Z,17.00
2017-09-11T17:50:50.876Z,17.00
2017-09-11T17:53:17.383Z,16.90
2017-09-11T17:55:43.914Z,16.90
2017-09-11T17:58:10.552Z,16.80
2017-09-11T18:00:37.721Z,16.90
2017-09-11T18:03:04.096Z,16.90
2017-09-11T18:05:30.514Z,16.90
2017-09-11T18:07:56.948Z,16.90
2017-09-11T18:10:23.349Z,16.80
2017-09-11T18:12:51.841Z,16.80
2017-09-11T18:15:18.388Z,16.70
2017-09-11T18:17:44.806Z,16.60
2017-09-11T18:20:11.209Z,16.60
2017-09-11T18:22:38.310Z,17.00
2017-09-11T18:25:04.827Z,16.90
2017-09-11T18:27:31.856Z,16.90
2017-09-11T18:29:59.999Z,16.70
2017-09-11T18:32:28.013Z,16.70
2017-09-11T18:34:54.401Z,16.70
2017-09-11T18:37:21.815Z,16.40
2017-09-11T18:39:49.081Z,16.40
2017-09-11T18:42:16.326Z,16.50
2017-09-11T18:44:42.808Z,16.40
2017-09-11T18:47:10.068Z,16.50
2017-09-11T18:49:36.907Z,16.50
2017-09-11T18:52:03.653Z,16.40
2017-09-11T18:54:31.321Z,16.50
2017-09-11T18:56:58.091Z,16.50
2017-09-11T18:59:24.522Z,16.40
2017-09-11T19:01:50.954Z,16.40
2017-09-11T19:04:17.399Z,16.30
2017-09-11T19:06:44.184Z,16.30
2017-09-11T19:09:11.372Z,16.20
2017-09-11T19:11:38.241Z,16.20
2017-09-11T19:14:05.441Z,16.00
2017-09-11T19:16:31.883Z,15.90
2017-09-11T19:18:58.285Z,15.90
2017-09-11T19:21:26.012Z,15.90
2017-09-11T19:23:53.192Z,15.90
2017-09-11T19:26:21.458Z,15.80
2017-09-11T19:28:47.887Z,15.80
2017-09-11T19:31:14.353Z,15.80
2017-09-11T19:33:41.799Z,15.80
2017-09-11T19:36:08.936Z,16.00
2017-09-11T19:38:35.385Z,16.00
2017-09-11T19:41:02.558Z,16.20
2017-09-11T19:43:29.063Z,16.20
2017-09-11T19:45:56.314Z,16.20
2017-09-11T19:48:23.611Z,16.20
2017-09-11T19:50:50.206Z,16.10
2017-09-11T19:53:16.883Z,16.10
2017-09-11T19:55:43.327Z,16.10
2017-09-11T19:58:10.049Z,16.10
2017-09-11T20:00:36.681Z,16.10
2017-09-11T20:03:03.218Z,16.00
2017-09-11T20:05:30.683Z,16.00
2017-09-11T20:07:57.092Z,16.00
2017-09-11T20:10:24.421Z,15.90
2017-09-11T20:12:51.612Z,15.90
2017-09-11T20:15:20.143Z,16.00
2017-09-11T20:17:47.789Z,16.00
2017-09-11T20:20:14.224Z,16.00
2017-09-11T20:22:40.629Z,16.00
2017-09-11T20:25:07.089Z,16.00
2017-09-11T20:27:33.934Z,15.90
2017-09-11T20:30:01.965Z,16.00
2017-09-11T20:32:28.360Z,16.00
2017-09-11T20:34:54.750Z,16.00
2017-09-11T20:37:21.913Z,15.90
2017-09-11T20:39:48.365Z,15.90
2017-09-11T20:42:15.986Z,15.80
2017-09-11T20:44:42.779Z,15.90
2017-09-11T20:47:09.934Z,15.80
2017-09-11T20:49:36.345Z,15.80
2017-09-11T20:52:02.745Z,15.90
2017-09-11T20:54:29.181Z,15.90
2017-09-11T20:56:55.577Z,16.00
2017-09-11T20:59:22.700Z,15.90
2017-09-11T21:01:49.874Z,15.80
2017-09-11T21:04:16.265Z,15.80
2017-09-11T21:06:42.685Z,15.70
2017-09-11T21:09:09.515Z,15.60
2017-09-11T21:11:35.880Z,15.60
2017-09-11T21:14:02.271Z,15.60
2017-09-11T21:16:28.699Z,15.70
2017-09-11T21:18:55.093Z,15.60
2017-09-11T21:21:22.106Z,15.60
2017-09-11T21:23:48.592Z,15.60
2017-09-11T21:26:14.991Z,15.60
2017-09-11T21:28:41.645Z,15.60
2017-09-11T21:31:08.041Z,15.60
2017-09-11T21:33:34.437Z,15.70
2017-09-11T21:36:01.593Z,15.90
2017-09-11T21:38:28.705Z,16.00
2017-09-11T21:40:55.153Z,15.90
2017-09-11T21:43:21.918Z,15.90
2017-09-11T21:45:48.372Z,15.90
2017-09-11T21:48:14.745Z,15.90
2017-09-11T21:50:41.134Z,15.90
2017-09-11T21:53:07.562Z,15.90
2017-09-11T21:55:34.005Z,15.90
2017-09-11T21:58:00.413Z,15.90
2017-09-11T22:00:27.542Z,15.90
2017-09-11T22:02:53.938Z,15.90
2017-09-11T22:05:20.726Z,15.80
2017-09-11T22:07:47.153Z,15.70
2017-09-11T22:10:13.521Z,15.60
2017-09-11T22:12:46.338Z,15.80
2017-09-11T22:15:12.795Z,15.80
2017-09-11T22:17:39.185Z,15.80
2017-09-11T22:20:05.572Z,15.80
2017-09-11T22:22:31.992Z,15.80
2017-09-11T22:24:58.378Z,15.70
2017-09-11T22:27:25.097Z,15.70
2017-09-11T22:29:51.533Z,15.70
2017-09-11T22:32:17.917Z,15.60
2017-09-11T22:34:44.314Z,15.70
2017-09-11T22:37:10.722Z,15.50
2017-09-11T22:39:37.842Z,15.40
2017-09-11T22:42:04.237Z,15.40
2017-09-11T22:44:30.649Z,15.40
2017-09-11T22:46:57.036Z,15.50
2017-09-11T22:49:23.485Z,15.40
2017-09-11T22:51:51.765Z,15.30
2017-09-11T22:54:18.346Z,15.30
2017-09-11T22:56:44.717Z,15.20
2017-09-11T22:59:11.097Z,15.30
2017-09-11T23:01:54.550Z,15.30
2017-09-11T23:04:20.963Z,15.20
2017-09-11T23:06:47.414Z,15.30
2017-09-11T23:09:14.381Z,15.30
2017-09-11T23:11:40.986Z,15.40
2017-09-11T23:14:07.361Z,15.40
2017-09-11T23:16:34.485Z,15.40
2017-09-11T23:19:00.925Z,15.40
2017-09-11T23:21:27.322Z,15.50
2017-09-11T23:23:53.714Z,15.50
2017-09-11T23:26:21.544Z,15.50
2017-09-11T23:28:48.714Z,15.50
2017-09-11T23:31:15.141Z,15.50
2017-09-11T23:33:41.593Z,15.50
2017-09-11T23:36:08.314Z,15.60
2017-09-11T23:38:34.693Z,15.50
2017-09-11T23:41:01.839Z,15.50
2017-09-11T23:43:28.964Z,15.40
2017-09-11T23:45:55.349Z,15.40
2017-09-11T23:48:22.912Z,15.40
2017-09-11T23:50:49.350Z,15.40
2017-09-11T23:53:15.895Z,15.30
2017-09-11T23:55:42.303Z,15.30
2017-09-11T23:58:08.710Z,15.30
